Time;durP1;ratioP1;P1;durP2;ratioP2;P2;SDS_P1;SDS_P2;PMS_P1;PMS_P2;Temp;Humidity;BMP_temperature;BMP_pressure;BME280_temperature;BME280_humidity;BME280_pressure;Samples;Min_cycle;Max_cycle;Signal;HPM_P1;HPM_P2
2021/09/13 00:02:28;;;;;;;24.07;22.37;;;16.90;89.00;;;;;;5066687;28;20540;-71
2021/09/13 00:04:55;;;;;;;24.03;22.50;;;16.80;89.20;;;;;;5074799;28;20541;-70
2021/09/13 00:07:23;;;;;;;23.70;22.40;;;16.80;89.40;;;;;;5067436;28;20453;-70
2021/09/13 00:09:49;;;;;;;23.77;22.20;;;16.70;89.60;;;;;;5064653;28;20995;-70
2021/09/13 00:12:16;;;;;;;23.60;22.20;;;16.80;89.60;;;;;;5067318;28;20500;-70
2021/09/13 00:14:45;;;;;;;23.93;22.23;;;16.90;89.40;;;;;;5070551;28;20540;-70
2021/09/13 00:17:12;;;;;;;24.20;22.80;;;16.90;89.20;;;;;;5065305;28;20459;-70
2021/09/13 00:19:39;;;;;;;22.70;21.47;;;17.00;89.20;;;;;;5061643;28;20485;-70
2021/09/13 00:22:06;;;;;;;23.43;22.00;;;17.00;88.90;;;;;;5068024;28;21188;-70
2021/09/13 00:24:33;;;;;;;24.47;22.87;;;17.00;88.90;;;;;;5066672;28;20485;-70
2021/09/13 00:27:00;;;;;;;24.50;23.00;;;16.90;89.00;;;;;;5066058;28;20452;-70
2021/09/13 00:29:26;;;;;;;23.23;22.03;;;16.90;89.10;;;;;;5064139;28;20561;-70
2021/09/13 00:31:55;;;;;;;23.40;22.00;;;16.90;89.20;;;;;;5063400;28;20538;-70
2021/09/13 00:34:22;;;;;;;23.70;22.40;;;16.90;89.20;;;;;;5079495;28;21064;-70
2021/09/13 00:36:48;;;;;;;23.30;22.03;;;16.70;89.80;;;;;;5066249;28;20910;-70
2021/09/13 00:39:15;;;;;;;24.10;22.53;;;16.80;90.00;;;;;;5062400;28;20481;-70
2021/09/13 00:41:42;;;;;;;25.00;23.37;;;16.80;89.80;;;;;;5068241;28;20460;-70
2021/09/13 00:44:09;;;;;;;24.50;22.97;;;16.80;89.90;;;;;;5057495;28;20477;-71
2021/09/13 00:46:36;;;;;;;24.43;22.80;;;16.80;89.80;;;;;;5066780;28;20564;-70
2021/09/13 00:49:04;;;;;;;24.33;22.83;;;16.70;90.00;;;;;;5078058;28;20484;-70
2021/09/13 00:51:31;;;;;;;25.17;23.10;;;16.70;90.20;;;;;;5067126;28;20552;-70
2021/09/13 00:53:58;;;;;;;24.17;22.73;;;16.70;90.30;;;;;;5070056;28;20496;-70
2021/09/13 00:56:26;;;;;;;23.77;22.37;;;16.70;90.10;;;;;;5071065;28;20542;-70
2021/09/13 00:58:53;;;;;;;23.77;22.47;;;16.60;90.30;;;;;;5079511;28;20912;-70
2021/09/13 01:01:20;;;;;;;24.10;22.63;;;16.60;90.40;;;;;;5065815;28;20468;-70
2021/09/13 01:03:47;;;;;;;24.23;22.90;;;16.60;90.50;;;;;;5069586;28;20449;-70
2021/09/13 01:06:16;;;;;;;23.30;22.10;;;16.60;90.70;;;;;;5071648;28;20505;-70
2021/09/13 01:08:43;;;;;;;24.00;22.70;;;16.60;90.80;;;;;;5068306;28;20565;-70
2021/09/13 01:11:11;;;;;;;23.77;22.47;;;16.60;90.80;;;;;;5072290;28;20856;-70
2021/09/13 01:13:38;;;;;;;23.73;22.43;;;16.60;90.70;;;;;;5075142;28;20456;-71
2021/09/13 01:16:05;;;;;;;23.80;22.37;;;16.50;90.90;;;;;;5072174;28;20457;-70
2021/09/13 01:18:33;;;;;;;25.83;24.13;;;16.50;91.00;;;;;;5075663;28;20449;-70
2021/09/13 01:21:00;;;;;;;23.90;22.40;;;16.50;91.00;;;;;;5065906;28;20468;-70
2021/09/13 01:23:29;;;;;;;23.57;22.27;;;16.50;91.00;;;;;;5067820;28;20492;-70
2021/09/13 01:25:56;;;;;;;24.43;22.90;;;16.50;91.10;;;;;;5071453;28;20465;-70
2021/09/13 01:28:23;;;;;;;24.20;22.80;;;16.50;91.10;;;;;;5075190;28;20460;-70
2021/09/13 01:30:50;;;;;;;24.10;22.77;;;16.50;91.10;;;;;;5078369;28;20453;-70
2021/09/13 01:33:17;;;;;;;24.80;23.30;;;16.50;91.00;;;;;;5065896;28;21219;-70
2021/09/13 01:35:44;;;;;;;25.03;23.53;;;16.40;91.20;;;;;;5074841;28;20493;-70
2021/09/13 01:38:10;;;;;;;23.93;22.50;;;16.40;91.20;;;;;;5069394;28;20456;-70
2021/09/13 01:40:39;;;;;;;24.40;22.90;;;16.40;91.30;;;;;;5085502;28;20493;-70
2021/09/13 01:43:06;;;;;;;24.30;23.00;;;16.40;91.40;;;;;;5069389;28;20951;-70
2021/09/13 01:45:33;;;;;;;24.20;22.87;;;16.40;91.30;;;;;;5067901;28;20466;-70
2021/09/13 01:47:59;;;;;;;24.33;22.93;;;16.40;91.00;;;;;;5070550;28;20490;-70
2021/09/13 01:50:27;;;;;;;24.53;23.00;;;16.40;91.10;;;;;;5071507;28;20476;-72
2021/09/13 01:52:53;;;;;;;25.10;23.40;;;16.40;91.20;;;;;;5068912;28;20551;-70
2021/09/13 01:55:20;;;;;;;24.77;23.27;;;16.30;91.30;;;;;;5064285;28;20464;-70
2021/09/13 01:57:48;;;;;;;24.53;23.13;;;16.30;91.30;;;;;;5066699;28;20456;-70
2021/09/13 02:00:16;;;;;;;24.93;23.20;;;16.30;91.30;;;;;;5066238;28;20486;-70
2021/09/13 02:02:43;;;;;;;24.67;23.27;;;16.20;91.50;;;;;;5065708;28;20459;-70
2021/09/13 02:05:10;;;;;;;25.30;23.70;;;16.10;91.60;;;;;;5069118;28;20485;-70
2021/09/13 02:07:37;;;;;;;24.17;22.87;;;16.20;91.70;;;;;;5069429;28;20546;-70
2021/09/13 02:10:05;;;;;;;24.50;23.20;;;16.20;91.40;;;;;;5073484;28;20464;-70
2021/09/13 02:12:32;;;;;;;24.93;23.30;;;16.10;91.70;;;;;;5068902;28;20891;-70
2021/09/13 02:15:01;;;;;;;24.73;23.23;;;16.20;91.70;;;;;;5070918;28;20470;-70
2021/09/13 02:17:27;;;;;;;24.93;23.43;;;16.20;91.60;;;;;;5066258;28;20460;-70
2021/09/13 02:19:54;;;;;;;25.30;23.60;;;16.10;91.70;;;;;;5068057;28;20570;-70
2021/09/13 02:22:21;;;;;;;24.30;23.00;;;16.10;91.80;;;;;;5060057;28;20461;-70
2021/09/13 02:24:48;;;;;;;24.40;23.00;;;16.20;91.70;;;;;;5068413;28;20453;-70
2021/09/13 02:27:15;;;;;;;24.37;22.87;;;16.10;91.60;;;;;;5070561;28;20462;-70
2021/09/13 02:29:43;;;;;;;24.50;23.00;;;16.10;91.80;;;;;;5069435;28;20482;-70
2021/09/13 02:32:11;;;;;;;24.43;22.90;;;16.00;92.10;;;;;;5062888;28;20456;-70
2021/09/13 02:34:38;;;;;;;23.70;22.30;;;15.90;92.20;;;;;;5070629;28;20545;-70
2021/09/13 02:37:05;;;;;;;23.93;22.40;;;16.00;92.10;;;;;;5080760;28;20455;-70
2021/09/13 02:39:32;;;;;;;23.73;22.43;;;16.00;92.00;;;;;;5069515;28;20556;-70
2021/09/13 02:41:59;;;;;;;24.73;23.30;;;16.00;92.20;;;;;;5073188;28;20461;-71
2021/09/13 02:44:25;;;;;;;23.90;22.40;;;16.00;92.30;;;;;;5069870;28;20467;-70
2021/09/13 02:46:52;;;;;;;23.53;22.10;;;15.90;92.50;;;;;;5081860;28;20940;-70
2021/09/13 02:49:21;;;;;;;24.00;22.70;;;15.90;92.50;;;;;;5068072;28;20482;-70
2021/09/13 02:51:47;;;;;;;24.43;23.03;;;16.00;92.30;;;;;;5057416;28;20451;-70
2021/09/13 02:54:14;;;;;;;24.23;22.93;;;15.90;92.30;;;;;;5063630;28;20449;-70
2021/09/13 02:56:41;;;;;;;27.57;25.97;;;15.90;92.60;;;;;;5072276;28;20454;-70
2021/09/13 02:59:08;;;;;;;25.53;23.83;;;15.90;92.60;;;;;;5064373;28;20483;-70
2021/09/13 03:01:35;;;;;;;23.93;22.63;;;15.90;92.50;;;;;;5071597;28;20472;-70
2021/09/13 03:04:02;;;;;;;25.43;23.93;;;15.90;92.50;;;;;;5064823;28;20542;-70
2021/09/13 03:06:30;;;;;;;24.40;23.10;;;15.90;92.60;;;;;;5076191;28;20736;-70
2021/09/13 03:08:57;;;;;;;24.40;23.10;;;15.90;92.70;;;;;;5067600;28;21108;-70
2021/09/13 03:11:24;;;;;;;26.20;24.70;;;15.90;92.50;;;;;;5068134;28;20490;-71
2021/09/13 03:13:51;;;;;;;25.43;23.83;;;15.90;92.50;;;;;;5065064;28;20457;-70
2021/09/13 03:16:18;;;;;;;24.77;23.37;;;15.90;92.60;;;;;;5066152;28;20470;-70
2021/09/13 03:18:45;;;;;;;28.03;26.53;;;15.90;92.60;;;;;;5061827;28;20481;-70
2021/09/13 03:21:12;;;;;;;25.50;23.90;;;15.80;92.60;;;;;;5064252;28;20570;-71
2021/09/13 03:23:40;;;;;;;23.57;22.27;;;15.80;92.60;;;;;;5068596;28;20513;-70
2021/09/13 03:26:07;;;;;;;24.60;23.20;;;15.90;92.50;;;;;;5067754;28;20452;-69
2021/09/13 03:28:34;;;;;;;25.13;23.63;;;15.90;92.50;;;;;;5068922;28;20457;-70
2021/09/13 03:31:02;;;;;;;24.83;23.40;;;15.90;92.40;;;;;;5060833;28;20469;-69
2021/09/13 03:33:29;;;;;;;26.27;24.67;;;15.80;92.40;;;;;;5069001;28;20455;-70
2021/09/13 03:35:56;;;;;;;25.13;23.43;;;15.90;92.50;;;;;;5067483;28;20456;-69
2021/09/13 03:38:23;;;;;;;25.63;24.13;;;15.90;92.30;;;;;;5069043;28;20452;-70
2021/09/13 03:40:51;;;;;;;24.80;23.40;;;15.90;92.10;;;;;;5065649;28;20565;-69
2021/09/13 03:43:18;;;;;;;30.60;28.80;;;15.90;92.20;;;;;;5072628;28;20467;-69
2021/09/13 03:45:45;;;;;;;24.73;23.23;;;15.80;92.40;;;;;;5065113;28;20827;-69
2021/09/13 03:48:12;;;;;;;26.17;24.47;;;15.80;92.70;;;;;;5068314;28;21144;-70
2021/09/13 03:50:39;;;;;;;27.53;25.63;;;15.90;92.70;;;;;;5059446;28;20476;-70
2021/09/13 03:53:05;;;;;;;25.93;24.20;;;15.90;92.50;;;;;;5059259;28;20534;-70
2021/09/13 03:55:35;;;;;;;25.27;23.50;;;15.90;92.50;;;;;;5066845;28;20463;-70
2021/09/13 03:58:03;;;;;;;26.93;25.20;;;15.80;92.70;;;;;;5069274;28;20462;-70
2021/09/13 04:00:30;;;;;;;27.40;25.90;;;15.80;92.50;;;;;;5066457;28;20839;-70
2021/09/13 04:02:57;;;;;;;27.03;25.33;;;15.80;92.50;;;;;;5068150;28;20578;-70
2021/09/13 04:05:26;;;;;;;26.20;24.67;;;15.70;92.80;;;;;;5075390;28;20855;-70
2021/09/13 04:08:09;;;;;;;27.20;25.60;;;15.70;92.80;;;;;;5072781;28;20509;-70
2021/09/13 04:10:40;;;;;;;26.03;24.53;;;15.80;92.70;;;;;;5060364;28;21056;-70
2021/09/13 04:13:09;;;;;;;26.50;24.83;;;15.80;92.80;;;;;;5067784;28;20561;-70
2021/09/13 04:15:36;;;;;;;26.67;25.07;;;15.80;92.60;;;;;;5068398;28;20573;-70
2021/09/13 04:18:03;;;;;;;28.30;26.60;;;15.80;92.30;;;;;;5063843;28;20942;-70
2021/09/13 04:20:30;;;;;;;24.87;23.57;;;15.80;92.40;;;;;;5056185;28;20486;-70
2021/09/13 04:22:57;;;;;;;25.77;24.00;;;15.80;92.10;;;;;;5064891;28;20545;-70
2021/09/13 04:25:24;;;;;;;27.73;26.03;;;15.80;92.20;;;;;;5072031;28;20460;-69
2021/09/13 04:27:51;;;;;;;26.10;24.30;;;15.70;92.30;;;;;;5067106;28;21296;-70
2021/09/13 04:30:20;;;;;;;26.53;25.03;;;15.70;92.50;;;;;;5066122;28;20824;-70
2021/09/13 04:32:47;;;;;;;25.08;23.52;;;15.70;92.40;;;;;;5063772;28;20980;-72
2021/09/13 04:35:14;;;;;;;29.80;27.93;;;15.80;92.60;;;;;;5073797;28;20207;-72
2021/09/13 04:37:41;;;;;;;28.27;26.17;;;15.70;92.30;;;;;;5067987;28;20462;-71
2021/09/13 04:40:09;;;;;;;26.20;24.60;;;15.70;92.60;;;;;;5060968;28;20497;-71
2021/09/13 04:42:36;;;;;;;26.27;24.67;;;15.60;92.60;;;;;;5068858;28;20462;-70
2021/09/13 04:45:02;;;;;;;26.97;25.37;;;15.60;92.50;;;;;;5060396;28;20466;-70
2021/09/13 04:47:31;;;;;;;26.50;24.83;;;15.60;92.60;;;;;;5068805;28;20454;-70
2021/09/13 04:49:57;;;;;;;26.57;24.97;;;15.60;92.70;;;;;;5053533;28;20491;-70
2021/09/13 04:52:24;;;;;;;26.47;25.07;;;15.50;92.90;;;;;;5067092;28;20448;-70
2021/09/13 04:54:51;;;;;;;28.80;27.00;;;15.50;93.10;;;;;;5067898;28;20481;-70
2021/09/13 04:57:18;;;;;;;27.80;25.90;;;15.50;93.20;;;;;;5068565;28;20542;-70
2021/09/13 04:59:45;;;;;;;27.67;25.87;;;15.50;93.10;;;;;;5065061;28;20465;-69
2021/09/13 05:02:12;;;;;;;30.50;28.53;;;15.50;93.10;;;;;;5061381;28;20538;-72
2021/09/13 05:04:43;;;;;;;25.00;23.50;;;15.50;93.20;;;;;;5064056;28;20465;-73
2021/09/13 05:07:11;;;;;;;26.63;25.07;;;15.50;93.20;;;;;;5059267;28;20920;-73
2021/09/13 05:09:40;;;;;;;26.17;24.47;;;15.60;93.20;;;;;;5067780;28;20481;-73
2021/09/13 05:12:07;;;;;;;25.37;23.87;;;15.70;93.00;;;;;;5067749;28;20575;-73
2021/09/13 05:14:34;;;;;;;27.23;25.57;;;15.80;92.70;;;;;;5066515;28;20458;-72
2021/09/13 05:17:01;;;;;;;27.90;26.30;;;15.80;92.50;;;;;;5069478;28;20538;-71
2021/09/13 05:19:28;;;;;;;28.27;26.50;;;15.80;92.40;;;;;;5067597;28;20567;-70
2021/09/13 05:21:56;;;;;;;26.57;24.67;;;15.80;92.10;;;;;;5067466;28;20486;-70
2021/09/13 05:24:23;;;;;;;26.00;24.30;;;15.70;92.10;;;;;;5064289;28;20543;-70
2021/09/13 05:26:50;;;;;;;27.70;26.13;;;15.80;92.20;;;;;;5057769;28;20535;-70
2021/09/13 05:29:17;;;;;;;27.77;25.90;;;15.80;92.10;;;;;;5063908;28;20558;-70
2021/09/13 05:31:44;;;;;;;26.30;24.70;;;15.80;92.10;;;;;;5066895;28;20552;-69
2021/09/13 05:34:11;;;;;;;27.27;25.57;;;15.90;92.10;;;;;;5058711;28;20457;-69
2021/09/13 05:36:38;;;;;;;26.37;24.67;;;16.00;92.00;;;;;;5065287;28;20463;-69
2021/09/13 05:39:07;;;;;;;27.07;25.47;;;15.90;91.80;;;;;;5065189;28;20990;-69
2021/09/13 05:41:34;;;;;;;26.03;24.53;;;15.90;91.90;;;;;;5070564;28;20478;-69
2021/09/13 05:44:01;;;;;;;26.97;25.07;;;15.90;91.00;;;;;;5063855;28;20568;-70
2021/09/13 05:46:27;;;;;;;25.53;24.03;;;16.00;91.10;;;;;;5070771;28;20564;-69
2021/09/13 05:48:54;;;;;;;27.60;25.43;;;16.10;90.90;;;;;;5070615;28;20475;-71
2021/09/13 05:51:21;;;;;;;27.20;25.37;;;16.10;90.60;;;;;;5070001;28;20464;-70
2021/09/13 05:53:48;;;;;;;25.90;24.50;;;16.10;90.40;;;;;;5071241;28;20451;-69
2021/09/13 05:56:17;;;;;;;27.07;25.40;;;16.10;90.40;;;;;;5062879;28;20481;-71
2021/09/13 05:58:44;;;;;;;25.47;24.07;;;16.10;90.40;;;;;;5071900;28;20898;-71
2021/09/13 06:01:12;;;;;;;27.63;26.03;;;16.20;90.30;;;;;;5063300;28;20480;-69
2021/09/13 06:03:38;;;;;;;27.77;26.10;;;16.20;90.20;;;;;;5067019;28;20551;-71
2021/09/13 06:06:05;;;;;;;26.27;24.53;;;16.30;90.20;;;;;;5066261;28;21036;-71
2021/09/13 06:08:32;;;;;;;28.07;26.10;;;16.40;90.10;;;;;;5065952;28;20457;-70
2021/09/13 06:10:59;;;;;;;29.07;27.30;;;16.50;89.80;;;;;;5074603;28;20463;-69
2021/09/13 06:13:27;;;;;;;29.03;27.23;;;16.50;89.40;;;;;;5067349;28;20538;-69
2021/09/13 06:15:54;;;;;;;28.90;27.20;;;16.60;89.10;;;;;;5063763;28;20971;-70
2021/09/13 06:18:21;;;;;;;27.97;26.23;;;16.50;89.50;;;;;;5070976;28;20453;-70
2021/09/13 06:20:48;;;;;;;28.27;26.57;;;16.70;89.30;;;;;;5067001;28;20488;-71
2021/09/13 06:23:15;;;;;;;28.63;26.93;;;16.80;89.00;;;;;;5067706;28;20555;-70
2021/09/13 06:25:43;;;;;;;31.50;29.50;;;16.80;88.80;;;;;;5080053;28;20457;-71
2021/09/13 06:28:10;;;;;;;29.90;28.10;;;16.80;88.90;;;;;;5058453;28;20551;-70
2021/09/13 06:30:39;;;;;;;27.70;25.80;;;16.80;88.80;;;;;;5067910;28;20482;-71
2021/09/13 06:33:06;;;;;;;27.30;25.80;;;16.70;88.80;;;;;;5067587;28;20945;-70
2021/09/13 06:35:33;;;;;;;28.03;26.33;;;16.70;89.20;;;;;;5079019;28;21022;-70
2021/09/13 06:38:00;;;;;;;27.67;25.97;;;16.70;89.00;;;;;;5069139;28;20457;-71
2021/09/13 06:40:27;;;;;;;27.63;26.03;;;16.80;88.90;;;;;;5067102;28;20481;-70
2021/09/13 06:42:54;;;;;;;28.73;26.97;;;16.90;88.40;;;;;;5064624;28;20454;-70
2021/09/13 06:45:23;;;;;;;28.37;26.70;;;17.10;88.00;;;;;;5066373;28;20479;-71
2021/09/13 06:47:51;;;;;;;30.13;28.43;;;17.10;88.00;;;;;;5069111;28;20491;-71
2021/09/13 06:50:20;;;;;;;27.17;25.63;;;17.30;87.40;;;;;;5076107;28;20469;-71
2021/09/13 06:52:49;;;;;;;28.80;26.93;;;17.50;87.00;;;;;;5065356;28;20460;-71
2021/09/13 06:55:16;;;;;;;28.70;26.80;;;17.60;86.60;;;;;;5069834;28;20489;-71
2021/09/13 06:57:43;;;;;;;29.30;27.50;;;17.80;86.30;;;;;;5064916;28;20460;-71
2021/09/13 07:00:12;;;;;;;28.83;27.03;;;17.90;85.70;;;;;;5072934;28;21002;-70
2021/09/13 07:02:40;;;;;;;30.43;28.63;;;18.10;85.10;;;;;;5068784;28;20472;-71
2021/09/13 07:05:10;;;;;;;29.03;27.30;;;18.20;84.80;;;;;;5066622;28;20906;-70
2021/09/13 07:07:38;;;;;;;30.73;28.57;;;18.30;84.30;;;;;;5067165;28;20458;-70
2021/09/13 07:10:08;;;;;;;28.60;26.90;;;18.30;83.80;;;;;;5069899;28;20477;-70
2021/09/13 07:12:35;;;;;;;27.57;25.77;;;18.40;83.80;;;;;;5063452;28;20535;-71
2021/09/13 07:15:03;;;;;;;29.70;27.90;;;18.50;83.60;;;;;;5070904;28;20960;-70
2021/09/13 07:17:30;;;;;;;29.30;27.60;;;18.60;83.10;;;;;;5061041;28;20454;-71
2021/09/13 07:19:57;;;;;;;29.53;27.73;;;18.70;82.70;;;;;;5066619;28;20474;-71
2021/09/13 07:22:25;;;;;;;30.40;28.50;;;18.80;82.70;;;;;;5067753;28;20474;-70
2021/09/13 07:24:52;;;;;;;30.60;28.80;;;18.80;82.60;;;;;;5064514;28;20465;-70
2021/09/13 07:27:19;;;;;;;32.23;30.30;;;18.90;82.30;;;;;;5061203;28;20457;-73
2021/09/13 07:29:46;;;;;;;33.53;31.50;;;19.00;81.80;;;;;;5062882;28;20480;-71
2021/09/13 07:32:13;;;;;;;31.13;29.00;;;19.10;81.60;;;;;;5068147;28;20465;-71
2021/09/13 07:34:40;;;;;;;31.77;29.87;;;19.30;81.10;;;;;;5066636;28;21089;-71
2021/09/13 07:37:07;;;;;;;30.27;28.33;;;19.30;80.80;;;;;;5085139;28;20963;-69
2021/09/13 07:39:35;;;;;;;33.63;31.40;;;19.40;80.40;;;;;;5057671;28;20472;-70
2021/09/13 07:42:02;;;;;;;31.90;30.10;;;19.50;80.10;;;;;;5075873;28;20474;-71
2021/09/13 07:44:31;;;;;;;30.10;28.20;;;19.60;79.50;;;;;;5062945;28;21130;-71
2021/09/13 07:46:58;;;;;;;31.13;29.13;;;19.70;79.30;;;;;;5070059;28;21253;-71
2021/09/13 07:49:25;;;;;;;31.33;29.20;;;19.70;79.30;;;;;;5071854;28;20484;-70
2021/09/13 07:51:52;;;;;;;30.13;28.13;;;19.70;79.30;;;;;;5073404;28;20453;-70
2021/09/13 07:54:20;;;;;;;30.20;28.30;;;19.80;78.90;;;;;;5066529;28;20458;-70
2021/09/13 07:56:48;;;;;;;30.50;28.70;;;19.90;78.70;;;;;;5064544;28;20454;-74
2021/09/13 07:59:15;;;;;;;33.63;31.63;;;20.00;78.50;;;;;;5062678;28;20480;-74
2021/09/13 08:01:42;;;;;;;33.47;31.00;;;20.10;77.70;;;;;;5068672;28;20478;-70
2021/09/13 08:04:10;;;;;;;32.90;30.70;;;20.20;77.30;;;;;;5063476;28;20462;-70
2021/09/13 08:06:36;;;;;;;33.83;31.83;;;20.30;76.80;;;;;;5064664;28;20545;-71
2021/09/13 08:09:06;;;;;;;35.23;32.90;;;20.30;76.60;;;;;;5056841;28;20859;-71
2021/09/13 08:11:33;;;;;;;31.47;29.57;;;20.40;76.00;;;;;;5066038;28;20450;-74
2021/09/13 08:14:02;;;;;;;32.03;30.13;;;20.40;76.20;;;;;;5062419;28;20461;-71
2021/09/13 08:16:29;;;;;;;32.13;30.10;;;20.30;76.40;;;;;;5067998;28;20469;-71
2021/09/13 08:18:57;;;;;;;32.13;30.07;;;20.40;76.30;;;;;;5064036;28;20478;-71
2021/09/13 08:21:26;;;;;;;31.80;29.80;;;20.40;76.50;;;;;;5066206;28;20570;-70
2021/09/13 08:23:56;;;;;;;31.90;29.80;;;20.40;76.40;;;;;;5067180;28;20824;-71
2021/09/13 08:26:22;;;;;;;32.90;30.73;;;20.50;76.40;;;;;;5062931;28;20478;-70
2021/09/13 08:28:51;;;;;;;32.03;29.60;;;20.60;76.40;;;;;;5065207;28;20825;-70
2021/09/13 08:31:19;;;;;;;33.23;31.03;;;20.70;76.40;;;;;;5078442;28;20445;-70
2021/09/13 08:33:46;;;;;;;33.03;31.00;;;20.80;76.20;;;;;;5067485;28;20468;-71
2021/09/13 08:36:13;;;;;;;31.47;29.47;;;21.00;75.40;;;;;;5069534;28;20458;-71
2021/09/13 08:38:40;;;;;;;31.93;29.73;;;20.90;75.30;;;;;;5065599;28;20478;-70
2021/09/13 08:41:07;;;;;;;31.43;29.37;;;21.00;75.30;;;;;;5062943;28;20974;-73
2021/09/13 08:43:37;;;;;;;32.20;30.40;;;21.00;75.00;;;;;;5061896;28;20458;-73
2021/09/13 08:46:07;;;;;;;31.23;29.23;;;21.10;74.70;;;;;;5065327;28;20462;-73
2021/09/13 08:48:39;;;;;;;32.80;30.60;;;21.20;74.90;;;;;;5063183;28;20537;-74
2021/09/13 08:51:18;;;;;;;33.27;31.17;;;21.20;74.80;;;;;;5060969;28;20541;-74
2021/09/13 08:53:50;;;;;;;31.63;29.40;;;21.30;74.90;;;;;;5065591;28;21051;-73
2021/09/13 08:56:17;;;;;;;32.77;30.50;;;21.30;74.50;;;;;;5063404;28;21977;-75
2021/09/13 08:58:46;;;;;;;32.70;30.37;;;21.30;74.30;;;;;;5063059;28;20485;-74
2021/09/13 09:01:13;;;;;;;31.40;29.33;;;21.40;73.90;;;;;;5061827;28;21212;-73
2021/09/13 09:03:43;;;;;;;34.23;31.97;;;21.50;74.00;;;;;;5063633;28;20450;-74
2021/09/13 09:06:28;;;;;;;29.97;28.03;;;21.40;74.50;;;;;;5066095;28;20458;-73
2021/09/13 09:09:00;;;;;;;30.17;28.30;;;21.50;74.70;;;;;;5067847;28;20468;-74
2021/09/13 09:11:48;;;;;;;32.87;30.73;;;21.60;74.00;;;;;;5067434;28;20449;-73
2021/09/13 09:14:31;;;;;;;31.00;29.07;;;21.80;73.40;;;;;;5067632;28;20526;-74
2021/09/13 09:17:00;;;;;;;33.33;31.03;;;22.00;72.60;;;;;;5069486;28;20461;-72
2021/09/13 09:19:30;;;;;;;34.30;32.10;;;22.10;72.50;;;;;;5070307;28;20480;-71
2021/09/13 09:21:59;;;;;;;33.00;30.90;;;22.20;72.00;;;;;;5066918;28;20569;-71
2021/09/13 09:24:27;;;;;;;32.57;30.40;;;22.30;71.20;;;;;;5067616;28;20465;-71
2021/09/13 09:27:02;;;;;;;32.70;30.80;;;22.40;71.00;;;;;;5072269;28;20556;-72
2021/09/13 09:29:30;;;;;;;31.53;29.43;;;22.50;70.60;;;;;;5069596;28;20596;-71
2021/09/13 09:31:59;;;;;;;32.23;30.30;;;22.50;70.40;;;;;;5069717;28;20546;-71
2021/09/13 09:34:33;;;;;;;32.00;29.90;;;22.50;70.20;;;;;;5062907;28;20459;-72
2021/09/13 09:37:12;;;;;;;31.00;28.90;;;22.50;70.60;;;;;;5070462;28;20492;-72
2021/09/13 09:39:41;;;;;;;33.00;30.87;;;22.60;70.20;;;;;;5067192;28;20485;-72
2021/09/13 09:42:10;;;;;;;31.07;29.17;;;22.70;70.10;;;;;;5076993;28;20495;-72
2021/09/13 09:44:42;;;;;;;31.40;29.53;;;22.80;69.70;;;;;;5070875;28;20512;-72
2021/09/13 09:47:11;;;;;;;31.03;29.13;;;22.80;68.60;;;;;;5069556;28;20457;-75
2021/09/13 09:49:51;;;;;;;32.30;30.20;;;22.80;68.90;;;;;;5069905;28;20469;-73
2021/09/13 09:52:29;;;;;;;30.67;28.90;;;23.00;68.50;;;;;;5068935;28;20468;-72
2021/09/13 09:55:14;;;;;;;31.03;29.13;;;22.90;68.40;;;;;;5061877;28;20456;-71
2021/09/13 09:57:41;;;;;;;32.97;30.97;;;22.90;68.70;;;;;;5069561;28;20457;-72
2021/09/13 10:00:27;;;;;;;31.63;29.83;;;23.00;68.50;;;;;;5061774;28;21025;-71
2021/09/13 10:02:54;;;;;;;32.83;30.93;;;22.90;68.60;;;;;;5071103;28;21007;-73
2021/09/13 10:05:25;;;;;;;33.40;31.40;;;23.00;67.90;;;;;;5062740;28;20457;-72
2021/09/13 10:07:52;;;;;;;33.50;31.60;;;23.10;68.20;;;;;;5066889;28;20899;-72
2021/09/13 10:10:20;;;;;;;33.20;31.30;;;23.10;68.30;;;;;;5077040;28;20473;-73
2021/09/13 10:12:47;;;;;;;32.17;30.37;;;23.10;68.50;;;;;;5066483;28;20954;-73
2021/09/13 10:15:15;;;;;;;32.90;31.00;;;23.20;68.50;;;;;;5067172;28;20470;-72
2021/09/13 10:17:46;;;;;;;32.37;30.57;;;23.20;68.50;;;;;;5069383;28;20454;-72
2021/09/13 10:20:14;;;;;;;33.07;31.17;;;23.30;68.50;;;;;;5056042;28;20486;-73
2021/09/13 10:22:50;;;;;;;33.50;31.60;;;23.40;67.50;;;;;;5069156;28;20463;-73
2021/09/13 10:25:18;;;;;;;32.40;30.40;;;23.40;67.80;;;;;;5077401;28;20456;-73
2021/09/13 10:27:47;;;;;;;34.27;31.70;;;23.40;68.00;;;;;;5074828;28;20486;-72
2021/09/13 10:30:21;;;;;;;33.13;30.93;;;23.60;67.70;;;;;;5072145;28;20477;-72
2021/09/13 10:32:50;;;;;;;32.03;30.13;;;23.70;67.60;;;;;;5072329;28;21013;-72
2021/09/13 10:35:18;;;;;;;36.07;34.00;;;23.70;67.30;;;;;;5072663;28;20485;-73
2021/09/13 10:37:51;;;;;;;33.70;31.80;;;23.90;67.10;;;;;;5070784;28;20458;-72
2021/09/13 10:40:28;;;;;;;33.03;31.13;;;24.00;67.10;;;;;;5069303;28;21226;-73
2021/09/13 10:42:57;;;;;;;32.50;30.60;;;24.10;66.80;;;;;;5065302;28;20488;-72
2021/09/13 10:45:29;;;;;;;33.90;31.80;;;24.20;67.00;;;;;;5062197;28;20561;-72
2021/09/13 10:48:09;;;;;;;33.97;32.03;;;24.30;66.50;;;;;;5068090;28;20450;-72
2021/09/13 10:50:46;;;;;;;33.20;31.30;;;24.30;66.10;;;;;;5057374;28;20527;-71
2021/09/13 10:53:35;;;;;;;33.60;31.70;;;24.20;66.40;;;;;;5066997;28;20897;-72
2021/09/13 10:56:07;;;;;;;31.63;29.83;;;24.30;66.50;;;;;;5050871;28;20546;-72
2021/09/13 10:58:54;;;;;;;32.50;30.70;;;24.30;66.20;;;;;;5056965;28;20466;-72
2021/09/13 11:01:28;;;;;;;32.60;30.67;;;24.50;65.70;;;;;;5075688;28;20465;-72
2021/09/13 11:04:03;;;;;;;31.70;29.90;;;24.40;65.50;;;;;;5065617;28;20976;-72
2021/09/13 11:06:40;;;;;;;32.07;30.17;;;24.50;65.20;;;;;;5071886;28;20545;-72
2021/09/13 11:09:15;;;;;;;32.33;30.53;;;24.50;65.50;;;;;;5063396;28;20866;-72
2021/09/13 11:11:44;;;;;;;33.73;31.73;;;24.70;65.60;;;;;;5071285;28;20455;-72
2021/09/13 11:14:13;;;;;;;34.63;32.53;;;24.80;64.90;;;;;;5060577;28;20497;-73
2021/09/13 11:16:41;;;;;;;33.40;31.50;;;24.90;64.30;;;;;;5066487;28;21243;-72
2021/09/13 11:19:11;;;;;;;32.53;30.37;;;25.20;63.70;;;;;;5067390;28;20564;-72
2021/09/13 11:21:41;;;;;;;33.63;31.73;;;25.40;63.00;;;;;;5066248;28;20533;-72
2021/09/13 11:24:11;;;;;;;34.40;32.47;;;25.40;62.80;;;;;;5062022;28;20970;-72
2021/09/13 11:26:40;;;;;;;32.33;30.53;;;25.60;62.40;;;;;;5067244;28;20458;-72
2021/09/13 11:29:09;;;;;;;33.43;31.30;;;25.70;62.40;;;;;;5067895;28;20517;-73
2021/09/13 11:31:39;;;;;;;32.80;30.90;;;25.90;61.70;;;;;;5075587;28;20528;-72
2021/09/13 11:34:19;;;;;;;33.47;31.47;;;25.80;60.80;;;;;;5068983;28;21080;-72
2021/09/13 11:36:53;;;;;;;33.30;31.40;;;25.80;60.80;;;;;;5070390;28;20461;-72
2021/09/13 11:39:22;;;;;;;35.23;33.20;;;25.90;60.50;;;;;;5063024;28;20471;-73
2021/09/13 11:41:57;;;;;;;33.80;31.90;;;26.00;60.00;;;;;;5061488;28;20458;-72
2021/09/13 11:44:24;;;;;;;31.83;30.00;;;26.10;60.10;;;;;;5061753;28;20537;-72
2021/09/13 11:46:55;;;;;;;34.10;32.10;;;26.30;59.70;;;;;;5067031;28;20454;-72
2021/09/13 11:49:24;;;;;;;33.90;32.00;;;26.50;59.20;;;;;;5066412;28;20472;-72
2021/09/13 11:52:06;;;;;;;33.10;31.10;;;26.70;58.90;;;;;;5074790;28;20871;-73
2021/09/13 11:54:43;;;;;;;32.33;30.53;;;27.00;58.70;;;;;;5060440;28;20462;-73
2021/09/13 11:57:38;;;;;;;31.63;29.83;;;27.10;58.00;;;;;;5062573;28;20552;-73
2021/09/13 12:00:12;;;;;;;32.07;30.17;;;27.00;57.90;;;;;;5013329;28;20481;-73
2021/09/13 12:02:41;;;;;;;34.70;32.70;;;27.10;58.20;;;;;;5056724;28;21121;-73
2021/09/13 12:05:12;;;;;;;35.27;33.30;;;27.20;57.80;;;;;;5055997;28;20462;-72
2021/09/13 12:07:39;;;;;;;32.67;30.77;;;27.10;57.20;;;;;;5065923;28;20813;-73
2021/09/13 12:10:09;;;;;;;34.33;32.30;;;27.00;57.80;;;;;;5057819;28;20596;-73
2021/09/13 12:12:41;;;;;;;33.13;31.33;;;27.10;57.20;;;;;;5066844;28;20859;-73
2021/09/13 12:15:09;;;;;;;34.40;32.40;;;27.10;57.10;;;;;;5064253;28;20454;-73
2021/09/13 12:17:42;;;;;;;31.33;29.53;;;27.00;57.50;;;;;;5066908;28;20450;-73
2021/09/13 12:20:18;;;;;;;34.53;32.53;;;27.10;56.70;;;;;;5064194;28;20466;-73
2021/09/13 12:22:47;;;;;;;31.07;29.37;;;27.00;57.20;;;;;;5068029;28;21017;-73
2021/09/13 12:25:18;;;;;;;35.10;33.00;;;26.90;57.10;;;;;;5058965;28;20848;-73
2021/09/13 12:27:47;;;;;;;32.23;30.33;;;26.90;56.80;;;;;;5065713;28;20454;-73
2021/09/13 12:30:17;;;;;;;31.40;29.60;;;26.90;56.10;;;;;;5061258;28;20536;-72
2021/09/13 12:32:51;;;;;;;34.37;32.27;;;26.60;56.60;;;;;;5059747;28;20531;-74
2021/09/13 12:35:29;;;;;;;31.70;29.90;;;26.50;57.00;;;;;;5070838;28;20545;-72
2021/09/13 12:37:56;;;;;;;31.70;29.90;;;26.80;55.70;;;;;;5065195;28;20540;-72